Time;durP1;ratioP1;P1;durP2;ratioP2;P2;SDS_P1;SDS_P2;PMS_P1;PMS_P2;Temp;Humidity;BMP_temperature;BMP_pressure;BME280_temperature;BME280_humidity;BME280_pressure;Samples;Min_cycle;Max_cycle;Signal;HPM_P1;HPM_P2
2023/06/22 00:02:03;;;;;;;35.67;13.67;;;23.10;99.90;;;;;;5075342;27;20871;-63
2023/06/22 00:04:29;;;;;;;13.57;12.20;;;23.20;99.90;;;;;;5085004;27;20494;-62
2023/06/22 00:06:56;;;;;;;18.70;12.70;;;23.30;99.90;;;;;;5080332;27;20479;-62
2023/06/22 00:09:23;;;;;;;13.70;11.47;;;23.50;99.90;;;;;;5097636;27;20517;-62
2023/06/22 00:11:49;;;;;;;13.00;11.00;;;23.50;99.90;;;;;;5088254;27;20914;-63
2023/06/22 00:14:16;;;;;;;14.17;11.77;;;23.60;99.90;;;;;;5078245;28;20738;-62
2023/06/22 00:16:43;;;;;;;31.93;11.90;;;23.70;99.90;;;;;;5088398;28;20483;-62
2023/06/22 00:19:12;;;;;;;16.53;12.53;;;23.70;99.90;;;;;;5091640;28;20558;-63
2023/06/22 00:21:39;;;;;;;14.90;11.23;;;23.80;99.90;;;;;;5073309;28;20491;-62
2023/06/22 00:24:07;;;;;;;15.63;12.17;;;23.50;99.90;;;;;;5060407;28;20516;-63
2023/06/22 00:26:33;;;;;;;13.33;11.97;;;23.40;99.90;;;;;;5092815;28;20490;-63
2023/06/22 00:29:00;;;;;;;16.73;11.80;;;23.30;99.90;;;;;;5066529;28;21021;-63
2023/06/22 00:31:27;;;;;;;15.40;12.10;;;23.30;99.90;;;;;;5068815;28;20899;-63
2023/06/22 00:33:53;;;;;;;14.23;12.60;;;23.40;99.90;;;;;;5082535;28;20491;-62
2023/06/22 00:36:24;;;;;;;13.87;12.37;;;23.40;99.90;;;;;;5094509;28;20483;-63
2023/06/22 00:38:51;;;;;;;18.40;12.07;;;23.50;99.90;;;;;;5075919;28;20483;-63
2023/06/22 00:41:18;;;;;;;14.93;12.97;;;23.40;99.90;;;;;;5070369;28;20499;-63
2023/06/22 00:43:44;;;;;;;14.63;11.70;;;23.50;99.90;;;;;;5086923;28;20974;-63
2023/06/22 00:46:12;;;;;;;18.60;11.50;;;23.50;99.90;;;;;;5091894;28;20500;-63
2023/06/22 00:48:41;;;;;;;15.23;11.80;;;23.50;99.90;;;;;;5061552;28;20502;-63
2023/06/22 00:51:08;;;;;;;18.83;12.60;;;23.50;99.90;;;;;;5054367;28;20485;-62
2023/06/22 00:53:37;;;;;;;31.97;12.63;;;23.50;99.90;;;;;;5080226;28;20465;-63
2023/06/22 00:56:05;;;;;;;14.20;11.97;;;23.50;99.90;;;;;;5076864;28;20874;-62
2023/06/22 00:58:32;;;;;;;16.00;11.97;;;23.50;99.90;;;;;;5066686;28;20486;-62
2023/06/22 01:01:00;;;;;;;23.10;13.47;;;23.50;99.90;;;;;;5087614;28;20495;-63
2023/06/22 01:03:26;;;;;;;15.53;13.40;;;23.50;99.90;;;;;;5098572;28;20889;-62
2023/06/22 01:05:59;;;;;;;16.17;13.67;;;23.60;99.90;;;;;;5097689;28;20475;-63
2023/06/22 01:08:34;;;;;;;14.83;13.20;;;23.50;99.90;;;;;;5084169;28;20499;-63
2023/06/22 01:11:08;;;;;;;14.53;12.70;;;23.50;99.90;;;;;;5086618;28;20486;-63
2023/06/22 01:13:42;;;;;;;18.53;13.00;;;23.50;99.90;;;;;;5082398;28;20477;-63
2023/06/22 01:16:16;;;;;;;14.37;12.37;;;23.50;99.90;;;;;;5092571;28;20477;-63
2023/06/22 01:18:44;;;;;;;39.27;14.73;;;23.40;99.90;;;;;;5075621;28;20493;-63
2023/06/22 01:21:17;;;;;;;14.77;13.17;;;23.40;99.90;;;;;;5077353;28;20487;-62
2023/06/22 01:23:54;;;;;;;14.23;12.53;;;23.40;99.90;;;;;;5068745;28;20614;-63
2023/06/22 01:26:34;;;;;;;20.03;13.13;;;23.40;99.90;;;;;;5078152;28;20475;-62
2023/06/22 01:29:04;;;;;;;15.63;12.03;;;23.40;99.90;;;;;;5092515;28;20504;-62
2023/06/22 01:31:34;;;;;;;14.53;13.07;;;23.40;99.90;;;;;;5085768;27;20490;-63
2023/06/22 01:34:05;;;;;;;22.03;14.33;;;23.40;99.90;;;;;;5079615;28;20486;-62
2023/06/22 01:36:33;;;;;;;25.63;12.50;;;23.40;99.90;;;;;;5081900;28;20517;-63
2023/06/22 01:39:00;;;;;;;17.30;13.57;;;23.40;99.90;;;;;;5090145;28;21037;-63
2023/06/22 01:41:30;;;;;;;18.43;13.57;;;23.20;99.90;;;;;;5093401;28;20487;-63
2023/06/22 01:43:57;;;;;;;21.80;14.00;;;23.00;99.90;;;;;;5094065;28;20452;-63
2023/06/22 01:46:25;;;;;;;18.40;15.07;;;23.00;99.90;;;;;;5069941;28;20820;-62
2023/06/22 01:48:53;;;;;;;21.57;13.70;;;23.00;99.90;;;;;;5093895;28;21010;-62
2023/06/22 01:51:20;;;;;;;24.83;14.10;;;23.10;99.90;;;;;;5097085;28;20951;-63
2023/06/22 01:53:47;;;;;;;18.30;13.40;;;23.10;99.90;;;;;;5069554;28;20539;-63
2023/06/22 01:56:17;;;;;;;15.60;13.40;;;23.10;99.90;;;;;;5066918;28;20485;-63
2023/06/22 01:58:51;;;;;;;21.53;14.80;;;23.10;99.90;;;;;;5092568;28;20444;-63
2023/06/22 02:01:28;;;;;;;16.90;13.53;;;23.10;99.90;;;;;;5094018;28;20494;-63
2023/06/22 02:04:03;;;;;;;26.83;13.87;;;23.10;99.90;;;;;;5084258;28;20482;-63
2023/06/22 02:06:37;;;;;;;16.70;13.93;;;23.10;99.90;;;;;;5066396;28;20482;-63
2023/06/22 02:09:15;;;;;;;31.03;14.63;;;23.00;99.90;;;;;;5089037;28;20496;-62
2023/06/22 02:11:44;;;;;;;19.93;13.83;;;23.00;99.90;;;;;;5091100;28;20869;-63
2023/06/22 02:14:11;;;;;;;18.07;13.80;;;23.00;99.90;;;;;;5089125;28;20837;-63
2023/06/22 02:16:39;;;;;;;17.50;13.87;;;23.00;99.90;;;;;;5077241;28;20480;-62
2023/06/22 02:19:08;;;;;;;19.80;13.80;;;23.00;99.90;;;;;;5060935;28;20920;-62
2023/06/22 02:21:35;;;;;;;19.33;14.37;;;22.90;99.90;;;;;;5086042;28;20475;-62
2023/06/22 02:24:02;;;;;;;20.13;14.47;;;22.90;99.90;;;;;;5070595;28;20525;-62
2023/06/22 02:26:29;;;;;;;19.77;14.43;;;22.90;99.90;;;;;;5076443;28;20538;-62
2023/06/22 02:28:55;;;;;;;18.23;12.23;;;22.90;99.90;;;;;;5088298;28;20475;-62
2023/06/22 02:31:22;;;;;;;17.37;13.23;;;22.90;99.90;;;;;;5068063;28;20480;-62
2023/06/22 02:33:49;;;;;;;19.03;13.57;;;22.80;99.90;;;;;;5076228;28;20874;-63
2023/06/22 02:36:23;;;;;;;16.73;13.80;;;22.70;99.90;;;;;;5068656;28;20485;-63
2023/06/22 02:38:51;;;;;;;19.03;14.07;;;22.70;99.90;;;;;;5093544;28;20482;-63
2023/06/22 02:41:18;;;;;;;17.40;13.83;;;22.60;99.90;;;;;;5082158;28;20490;-63
2023/06/22 02:43:46;;;;;;;19.37;14.80;;;22.50;99.90;;;;;;5093923;28;20888;-62
2023/06/22 02:46:13;;;;;;;20.17;13.17;;;22.50;99.90;;;;;;5076858;28;20511;-62
2023/06/22 02:48:40;;;;;;;18.07;14.00;;;22.50;99.90;;;;;;5067836;27;20496;-63
2023/06/22 02:51:07;;;;;;;34.93;15.20;;;22.10;99.90;;;;;;5060060;28;20469;-62
2023/06/22 02:53:35;;;;;;;17.17;13.17;;;22.60;99.90;;;;;;5076225;28;20565;-62
2023/06/22 02:56:05;;;;;;;15.33;13.73;;;22.60;99.90;;;;;;5075520;28;20479;-63
2023/06/22 02:58:33;;;;;;;22.23;14.37;;;22.60;99.90;;;;;;5063453;28;20481;-62
2023/06/22 03:01:04;;;;;;;22.63;14.33;;;22.60;99.90;;;;;;5044003;28;20976;-63
2023/06/22 03:03:31;;;;;;;17.47;13.80;;;22.50;99.90;;;;;;5064014;28;20483;-62
2023/06/22 03:05:57;;;;;;;25.90;13.67;;;22.50;99.90;;;;;;5054171;28;20517;-62
2023/06/22 03:08:24;;;;;;;19.37;12.50;;;22.50;99.90;;;;;;5064413;27;20500;-62
2023/06/22 03:10:52;;;;;;;23.00;13.40;;;22.40;99.90;;;;;;5071313;27;20531;-63
2023/06/22 03:13:19;;;;;;;26.50;13.37;;;22.40;99.90;;;;;;5106135;27;20482;-62
2023/06/22 03:15:46;;;;;;;24.83;12.70;;;22.40;99.90;;;;;;5083366;27;20489;-62
2023/06/22 03:18:12;;;;;;;17.57;12.73;;;22.30;99.90;;;;;;5058992;28;21185;-63
2023/06/22 03:20:39;;;;;;;26.07;13.80;;;22.20;99.90;;;;;;5082461;28;20691;-62
2023/06/22 03:23:06;;;;;;;23.10;14.70;;;22.20;99.90;;;;;;5084589;28;20470;-63
2023/06/22 03:25:33;;;;;;;22.23;14.07;;;22.20;99.90;;;;;;5063230;28;20487;-62
2023/06/22 03:28:01;;;;;;;23.60;13.90;;;22.10;99.90;;;;;;5059210;28;20483;-63
2023/06/22 03:30:28;;;;;;;17.30;12.37;;;22.00;99.90;;;;;;5062232;28;20890;-62
2023/06/22 03:32:54;;;;;;;19.73;13.50;;;22.10;99.90;;;;;;5065431;28;20512;-62
2023/06/22 03:35:21;;;;;;;22.73;12.77;;;22.10;99.90;;;;;;5078737;28;20478;-62
2023/06/22 03:37:48;;;;;;;17.03;13.90;;;22.10;99.90;;;;;;5068456;28;20482;-63
2023/06/22 03:40:14;;;;;;;18.37;13.30;;;22.10;99.90;;;;;;5070252;28;20495;-62
2023/06/22 03:42:41;;;;;;;28.03;14.10;;;22.10;99.90;;;;;;5063877;28;20536;-63
2023/06/22 03:45:11;;;;;;;19.27;13.37;;;22.10;99.90;;;;;;5069386;28;20517;-62
2023/06/22 03:47:37;;;;;;;20.13;14.10;;;22.10;99.90;;;;;;5050714;28;20861;-63
2023/06/22 03:50:05;;;;;;;33.80;14.10;;;22.10;99.90;;;;;;5067579;28;20951;-62
2023/06/22 03:52:32;;;;;;;23.33;13.97;;;22.10;99.90;;;;;;5069047;28;20487;-63
2023/06/22 03:54:59;;;;;;;23.47;14.13;;;22.10;99.90;;;;;;5081348;27;20483;-62
2023/06/22 03:57:26;;;;;;;33.13;15.37;;;22.00;99.90;;;;;;5053253;28;20483;-62
2023/06/22 03:59:52;;;;;;;24.63;14.33;;;22.10;99.90;;;;;;5059368;28;20980;-62
2023/06/22 04:02:20;;;;;;;23.83;15.47;;;22.00;99.90;;;;;;5056015;28;21004;-62
2023/06/22 04:04:47;;;;;;;23.87;13.23;;;22.00;99.90;;;;;;5082610;28;20759;-63
2023/06/22 04:07:14;;;;;;;27.43;17.30;;;22.00;99.90;;;;;;5085330;28;20475;-62
2023/06/22 04:09:40;;;;;;;27.80;17.70;;;22.00;99.90;;;;;;5062396;28;20522;-62
2023/06/22 04:12:08;;;;;;;28.27;15.60;;;22.00;99.90;;;;;;5078368;27;20474;-61
2023/06/22 04:14:35;;;;;;;20.77;15.47;;;22.00;99.90;;;;;;5094824;27;20538;-62
2023/06/22 04:17:02;;;;;;;19.80;14.77;;;22.00;99.90;;;;;;5090007;28;20470;-61
2023/06/22 04:19:30;;;;;;;35.07;16.50;;;22.00;99.90;;;;;;5094985;28;21435;-63
2023/06/22 04:21:56;;;;;;;22.27;14.37;;;22.10;99.90;;;;;;5088982;28;20699;-62
2023/06/22 04:24:23;;;;;;;21.73;14.60;;;22.10;99.90;;;;;;5089506;28;20883;-61
2023/06/22 04:26:54;;;;;;;27.23;14.60;;;22.00;99.90;;;;;;5082419;27;20753;-62
2023/06/22 04:29:28;;;;;;;30.17;18.00;;;22.10;99.90;;;;;;5077139;27;20530;-62
2023/06/22 04:31:57;;;;;;;33.90;13.70;;;22.00;99.90;;;;;;5094386;28;20652;-62
2023/06/22 04:34:26;;;;;;;24.37;16.37;;;22.00;99.90;;;;;;5053826;28;20482;-62
2023/06/22 04:36:54;;;;;;;27.60;17.10;;;22.10;99.90;;;;;;5069075;28;20562;-62
2023/06/22 04:39:21;;;;;;;30.80;17.10;;;22.10;99.90;;;;;;5043306;28;20466;-63
2023/06/22 04:41:48;;;;;;;28.93;16.20;;;22.10;99.90;;;;;;5059016;28;20495;-63
2023/06/22 04:44:23;;;;;;;22.20;15.70;;;22.20;99.90;;;;;;5067320;28;20517;-63
2023/06/22 04:46:53;;;;;;;28.50;17.00;;;22.20;99.90;;;;;;5062580;28;20485;-63
2023/06/22 04:49:21;;;;;;;27.13;16.80;;;22.30;99.90;;;;;;5058144;28;20487;-63
2023/06/22 04:51:48;;;;;;;23.13;14.90;;;22.30;99.90;;;;;;5071764;28;20484;-62
2023/06/22 04:54:16;;;;;;;27.43;17.03;;;22.40;99.90;;;;;;5051640;28;20655;-62
2023/06/22 04:56:46;;;;;;;26.10;16.57;;;22.40;99.90;;;;;;5059617;28;20889;-63
2023/06/22 04:59:13;;;;;;;27.13;16.20;;;22.50;99.90;;;;;;5056357;28;20487;-64
2023/06/22 05:01:40;;;;;;;24.70;17.63;;;22.50;99.90;;;;;;5077392;27;21624;-62
2023/06/22 05:04:07;;;;;;;32.90;15.33;;;22.60;99.90;;;;;;5078778;28;20482;-63
2023/06/22 05:06:34;;;;;;;39.23;15.90;;;22.70;99.90;;;;;;5091929;28;21148;-62
2023/06/22 05:09:01;;;;;;;20.67;14.47;;;22.80;99.90;;;;;;5074203;28;20532;-62
2023/06/22 05:11:29;;;;;;;38.03;16.93;;;22.80;99.90;;;;;;5077801;28;20482;-63
2023/06/22 05:13:56;;;;;;;23.50;13.67;;;22.90;99.90;;;;;;5078028;28;20499;-63
2023/06/22 05:16:24;;;;;;;29.00;15.33;;;23.00;99.90;;;;;;5089810;28;20478;-63
2023/06/22 05:18:55;;;;;;;21.77;15.63;;;23.10;99.90;;;;;;5094143;28;20631;-62
2023/06/22 05:21:27;;;;;;;25.43;14.23;;;23.10;99.90;;;;;;5064342;28;20490;-63
2023/06/22 05:23:59;;;;;;;19.53;13.60;;;23.20;99.90;;;;;;5088686;28;20544;-63
2023/06/22 05:26:27;;;;;;;27.93;15.27;;;23.30;99.90;;;;;;5060602;28;20491;-62
2023/06/22 05:28:55;;;;;;;23.90;15.57;;;23.30;99.90;;;;;;5088208;28;20478;-62
2023/06/22 05:31:22;;;;;;;21.70;14.83;;;23.30;99.90;;;;;;5088205;28;21016;-63
2023/06/22 05:33:50;;;;;;;25.63;15.03;;;23.40;99.90;;;;;;5080878;28;20857;-64
2023/06/22 05:36:16;;;;;;;18.70;13.80;;;23.40;99.90;;;;;;5084364;28;20486;-62
2023/06/22 05:38:43;;;;;;;21.90;15.20;;;23.40;99.90;;;;;;5055806;28;20489;-63
2023/06/22 05:41:10;;;;;;;55.50;17.20;;;23.50;99.90;;;;;;5078637;28;20903;-61
2023/06/22 05:43:37;;;;;;;22.83;15.70;;;23.50;99.90;;;;;;5092013;28;20478;-63
2023/06/22 05:46:05;;;;;;;23.57;15.37;;;23.50;99.90;;;;;;5093144;28;20814;-62
2023/06/22 05:48:32;;;;;;;22.57;14.80;;;23.60;99.90;;;;;;5093564;28;20564;-63
2023/06/22 05:50:59;;;;;;;20.73;14.10;;;23.60;99.90;;;;;;5046618;28;20556;-62
2023/06/22 05:53:26;;;;;;;21.47;16.50;;;23.70;99.90;;;;;;5064485;28;20469;-62
2023/06/22 05:55:53;;;;;;;18.47;14.30;;;23.80;99.90;;;;;;5075115;28;20707;-62
2023/06/22 05:58:20;;;;;;;18.37;13.77;;;23.80;99.90;;;;;;5071471;28;20486;-62
2023/06/22 06:00:47;;;;;;;23.73;15.40;;;23.90;99.90;;;;;;5087604;28;20781;-62
2023/06/22 06:03:16;;;;;;;31.00;17.53;;;24.00;99.90;;;;;;5093375;28;20479;-63
2023/06/22 06:05:45;;;;;;;29.30;16.97;;;24.00;99.90;;;;;;5090018;28;22084;-62
2023/06/22 06:08:12;;;;;;;24.60;16.87;;;24.10;99.90;;;;;;5058357;28;20515;-62
2023/06/22 06:10:39;;;;;;;31.53;15.77;;;24.10;99.90;;;;;;5078075;28;20482;-62
2023/06/22 06:13:05;;;;;;;19.10;15.13;;;24.20;99.90;;;;;;5092333;28;20535;-62
2023/06/22 06:15:33;;;;;;;20.33;15.30;;;24.30;99.90;;;;;;5099512;28;20479;-62
2023/06/22 06:18:00;;;;;;;21.80;14.13;;;24.30;99.90;;;;;;5099689;28;20933;-63
2023/06/22 06:20:28;;;;;;;25.33;15.73;;;24.30;99.90;;;;;;5102276;28;20478;-62
2023/06/22 06:22:55;;;;;;;17.60;13.53;;;24.30;99.90;;;;;;5097086;28;20482;-62
2023/06/22 06:25:22;;;;;;;22.23;13.93;;;24.30;99.90;;;;;;5061620;28;20487;-62
2023/06/22 06:27:50;;;;;;;24.83;16.87;;;24.30;99.90;;;;;;5076175;28;20905;-62
2023/06/22 06:30:18;;;;;;;22.80;14.60;;;24.40;99.90;;;;;;5075815;28;20491;-62
2023/06/22 06:32:46;;;;;;;20.33;13.87;;;24.50;99.90;;;;;;5071516;28;20488;-62
2023/06/22 06:35:15;;;;;;;23.87;15.50;;;24.50;99.90;;;;;;5092110;28;20804;-61
2023/06/22 06:37:45;;;;;;;22.17;16.60;;;24.60;99.90;;;;;;5095600;28;20456;-62
2023/06/22 06:40:13;;;;;;;18.50;14.30;;;24.60;99.90;;;;;;5070541;28;20474;-62
2023/06/22 06:42:41;;;;;;;19.53;14.13;;;24.80;99.90;;;;;;5101904;27;20474;-62
2023/06/22 06:45:09;;;;;;;25.57;16.87;;;24.90;99.90;;;;;;5076612;28;20893;-62
2023/06/22 06:47:36;;;;;;;22.40;16.17;;;25.00;99.90;;;;;;5080929;28;20925;-62
2023/06/22 06:50:03;;;;;;;23.53;16.07;;;25.10;99.90;;;;;;5062029;28;20501;-62
2023/06/22 06:52:29;;;;;;;20.07;14.13;;;25.10;99.90;;;;;;5060386;28;20466;-61
2023/06/22 06:54:57;;;;;;;16.40;12.60;;;25.20;99.90;;;;;;5074213;27;20870;-62
2023/06/22 06:57:26;;;;;;;17.03;13.50;;;25.40;99.90;;;;;;5071710;27;20453;-62
2023/06/22 06:59:52;;;;;;;26.53;15.30;;;25.50;99.90;;;;;;5031064;28;20474;-62
2023/06/22 07:02:20;;;;;;;17.57;13.33;;;25.60;99.90;;;;;;5068580;28;20665;-62
2023/06/22 07:04:47;;;;;;;17.80;14.80;;;25.70;99.90;;;;;;5068045;28;21150;-61
2023/06/22 07:07:13;;;;;;;29.80;15.70;;;25.80;99.90;;;;;;5070451;28;20519;-61
2023/06/22 07:09:40;;;;;;;18.30;14.03;;;25.80;99.90;;;;;;5070923;28;20469;-62
2023/06/22 07:12:09;;;;;;;19.27;13.50;;;25.80;99.90;;;;;;5083375;28;20477;-61
2023/06/22 07:14:36;;;;;;;86.13;18.23;;;25.90;99.90;;;;;;5083033;28;20468;-62
2023/06/22 07:17:03;;;;;;;23.23;16.63;;;26.00;99.90;;;;;;5066294;28;21091;-62
2023/06/22 07:19:34;;;;;;;22.23;15.63;;;26.10;99.90;;;;;;5074626;28;20480;-62
2023/06/22 07:22:01;;;;;;;20.90;13.20;;;26.30;99.90;;;;;;5097328;27;21026;-61
2023/06/22 07:24:28;;;;;;;17.50;12.47;;;26.40;99.90;;;;;;5066770;28;20482;-60
2023/06/22 07:26:54;;;;;;;23.57;12.43;;;26.70;99.90;;;;;;5066529;27;20572;-61
2023/06/22 07:29:22;;;;;;;15.63;10.93;;;26.80;99.90;;;;;;5080125;28;20479;-61
2023/06/22 07:31:52;;;;;;;14.47;12.27;;;26.90;99.90;;;;;;5064979;28;20765;-61
2023/06/22 07:34:19;;;;;;;17.17;12.77;;;27.00;99.90;;;;;;5068718;28;21211;-61
2023/06/22 07:36:47;;;;;;;21.83;12.50;;;27.10;99.90;;;;;;5075504;28;20570;-62
2023/06/22 07:39:14;;;;;;;12.83;10.77;;;27.30;99.90;;;;;;5053322;28;20453;-62
2023/06/22 07:41:41;;;;;;;17.33;12.40;;;27.30;99.90;;;;;;5075565;28;20883;-62
2023/06/22 07:44:08;;;;;;;15.50;10.83;;;27.30;99.90;;;;;;5043767;28;20715;-62
2023/06/22 07:46:36;;;;;;;14.60;12.37;;;27.40;99.90;;;;;;5074207;27;20499;-62
2023/06/22 07:49:03;;;;;;;14.60;10.60;;;27.40;99.90;;;;;;5079565;28;20493;-61
2023/06/22 07:51:30;;;;;;;20.73;10.57;;;27.40;99.20;;;;;;5072700;28;20454;-62
2023/06/22 07:53:56;;;;;;;10.83;9.70;;;27.40;99.60;;;;;;5070458;28;20814;-61
2023/06/22 07:56:23;;;;;;;23.20;11.80;;;27.50;99.70;;;;;;5073633;28;20567;-62
2023/06/22 07:58:50;;;;;;;11.87;9.47;;;27.50;99.00;;;;;;5069929;28;20851;-62
2023/06/22 08:01:19;;;;;;;11.17;9.70;;;27.60;99.10;;;;;;5065281;28;20458;-62
2023/06/22 08:03:48;;;;;;;10.20;9.00;;;27.80;98.40;;;;;;5070541;28;20512;-62
2023/06/22 08:06:15;;;;;;;22.77;12.67;;;27.70;98.40;;;;;;5065073;28;20797;-62
2023/06/22 08:08:42;;;;;;;15.53;11.53;;;27.70;98.30;;;;;;5060421;28;20859;-62
2023/06/22 08:11:09;;;;;;;12.23;10.93;;;27.60;97.40;;;;;;5074278;27;20928;-62
2023/06/22 08:13:35;;;;;;;16.33;10.17;;;27.50;98.30;;;;;;5071146;28;21513;-62
2023/06/22 08:16:02;;;;;;;13.33;9.93;;;27.40;97.60;;;;;;5072759;28;21111;-62
2023/06/22 08:18:29;;;;;;;13.87;10.60;;;27.40;98.00;;;;;;5072818;28;20559;-62
2023/06/22 08:20:57;;;;;;;19.90;10.37;;;27.30;98.20;;;;;;5073917;28;20781;-63
2023/06/22 08:23:24;;;;;;;11.60;9.43;;;27.40;98.60;;;;;;5074271;28;20467;-63
2023/06/22 08:25:51;;;;;;;11.10;9.30;;;27.40;98.00;;;;;;5053056;28;20459;-63
2023/06/22 08:28:17;;;;;;;14.77;10.70;;;27.30;97.80;;;;;;5079773;28;20460;-62
2023/06/22 08:30:44;;;;;;;16.57;11.70;;;27.40;97.70;;;;;;5065346;28;20459;-62
2023/06/22 08:33:11;;;;;;;10.70;9.57;;;27.40;98.10;;;;;;5076400;28;20486;-63
2023/06/22 08:35:38;;;;;;;14.33;9.37;;;27.50;98.00;;;;;;5077288;28;20546;-63
2023/06/22 08:38:06;;;;;;;12.10;9.83;;;27.60;97.50;;;;;;5074277;28;20896;-61
2023/06/22 08:40:33;;;;;;;12.47;10.27;;;27.60;97.70;;;;;;5072818;28;20496;-61
2023/06/22 08:42:59;;;;;;;21.40;9.47;;;27.80;98.10;;;;;;5066982;28;20462;-61
2023/06/22 08:45:26;;;;;;;12.17;10.00;;;27.90;97.60;;;;;;5076987;28;20852;-61
2023/06/22 08:47:53;;;;;;;12.10;9.90;;;28.00;98.10;;;;;;5068306;28;20455;-61
2023/06/22 08:50:19;;;;;;;15.80;9.80;;;28.30;98.10;;;;;;5071649;28;20846;-61
2023/06/22 08:52:47;;;;;;;10.30;9.20;;;28.60;97.40;;;;;;5062482;28;20512;-61
2023/06/22 08:55:15;;;;;;;12.47;7.63;;;28.90;97.20;;;;;;5067379;28;20864;-62
2023/06/22 08:57:43;;;;;;;10.70;7.80;;;29.20;97.10;;;;;;5070834;28;20744;-62
2023/06/22 09:00:19;;;;;;;11.00;8.73;;;29.30;96.00;;;;;;5077066;28;20459;-61
2023/06/22 09:02:46;;;;;;;17.40;10.80;;;29.20;94.60;;;;;;5071447;28;20458;-62
2023/06/22 09:05:13;;;;;;;12.73;8.43;;;29.30;96.00;;;;;;5060838;28;20985;-62
2023/06/22 09:07:40;;;;;;;12.07;10.70;;;29.40;95.20;;;;;;5073659;28;20470;-62
2023/06/22 09:10:07;;;;;;;16.53;9.53;;;29.50;95.00;;;;;;5075728;28;20477;-63
2023/06/22 09:12:37;;;;;;;14.37;10.57;;;29.80;96.00;;;;;;5061412;28;20504;-62
2023/06/22 09:15:06;;;;;;;8.83;7.83;;;29.80;94.40;;;;;;5072092;28;20900;-63
2023/06/22 09:17:34;;;;;;;13.73;9.37;;;29.60;93.10;;;;;;5070981;28;20485;-62
2023/06/22 09:20:00;;;;;;;10.57;8.93;;;29.70;93.70;;;;;;5056793;28;20489;-62
2023/06/22 09:22:29;;;;;;;10.70;8.10;;;29.60;94.50;;;;;;5079424;28;20485;-63
2023/06/22 09:24:56;;;;;;;19.80;9.20;;;29.40;94.70;;;;;;5073098;28;21009;-62
2023/06/22 09:27:23;;;;;;;16.90;7.97;;;29.50;94.70;;;;;;5074209;28;20564;-62
2023/06/22 09:29:51;;;;;;;10.00;7.57;;;29.80;94.90;;;;;;5039545;28;20572;-62
2023/06/22 09:32:18;;;;;;;16.23;8.40;;;30.10;95.80;;;;;;5060196;28;20893;-63
2023/06/22 09:34:44;;;;;;;11.17;9.90;;;29.80;93.10;;;;;;5070345;28;20494;-62
2023/06/22 09:37:11;;;;;;;17.03;10.37;;;30.10;93.40;;;;;;5068494;28;20880;-63
2023/06/22 09:39:38;;;;;;;15.40;9.73;;;30.50;94.60;;;;;;5059275;28;20909;-62
2023/06/22 09:42:06;;;;;;;14.47;9.33;;;30.60;93.00;;;;;;5061611;28;20473;-64
2023/06/22 09:44:33;;;;;;;11.97;8.83;;;30.60;93.30;;;;;;5061090;28;21150;-63
2023/06/22 09:47:01;;;;;;;15.63;8.77;;;30.60;92.80;;;;;;5055509;28;20819;-63
2023/06/22 09:49:28;;;;;;;9.93;8.20;;;30.80;94.40;;;;;;5062768;28;21030;-63
2023/06/22 09:51:54;;;;;;;10.27;8.87;;;31.00;94.40;;;;;;5065918;28;21055;-63
2023/06/22 09:54:21;;;;;;;16.73;8.30;;;31.20;92.90;;;;;;5061962;28;20478;-63
2023/06/22 09:56:48;;;;;;;13.70;7.40;;;31.30;91.70;;;;;;5053193;28;20520;-63
2023/06/22 09:59:14;;;;;;;12.97;7.70;;;31.30;91.60;;;;;;5073787;28;21311;-64
2023/06/22 10:01:41;;;;;;;13.00;8.57;;;31.40;91.80;;;;;;5066432;28;20474;-63
2023/06/22 10:04:09;;;;;;;10.50;7.90;;;31.60;92.70;;;;;;5076793;28;20489;-63
2023/06/22 10:06:36;;;;;;;8.93;7.20;;;31.70;91.10;;;;;;5058066;28;21009;-63
2023/06/22 10:09:02;;;;;;;11.90;7.53;;;32.00;91.40;;;;;;5079822;28;20930;-63
2023/06/22 10:11:30;;;;;;;12.17;7.97;;;31.70;90.20;;;;;;5077112;28;21252;-62
2023/06/22 10:13:57;;;;;;;13.00;8.40;;;32.00;90.50;;;;;;5076299;28;20486;-63
2023/06/22 10:16:26;;;;;;;20.27;8.33;;;31.70;88.90;;;;;;5072937;28;20570;-61
2023/06/22 10:18:53;;;;;;;15.83;7.73;;;31.40;90.60;;;;;;5072642;28;20850;-62
2023/06/22 10:21:21;;;;;;;14.10;8.50;;;31.30;90.50;;;;;;5072446;28;20484;-63
2023/06/22 10:23:48;;;;;;;14.77;7.97;;;31.20;90.60;;;;;;5078787;28;20819;-63
2023/06/22 10:26:15;;;;;;;15.13;8.47;;;31.10;91.20;;;;;;5073375;28;20806;-63
2023/06/22 10:28:41;;;;;;;17.27;9.03;;;31.10;90.70;;;;;;5065356;28;20572;-63
2023/06/22 10:31:08;;;;;;;16.03;7.70;;;31.10;90.80;;;;;;5075652;28;20462;-62
2023/06/22 10:33:35;;;;;;;12.70;7.20;;;31.40;91.60;;;;;;5069696;28;20529;-62
2023/06/22 10:36:01;;;;;;;7.67;6.87;;;31.70;92.20;;;;;;5070379;28;20845;-62
2023/06/22 10:38:29;;;;;;;16.53;7.73;;;31.90;88.40;;;;;;5072705;28;20477;-62
2023/06/22 10:40:56;;;;;;;11.90;7.80;;;31.70;89.20;;;;;;5073219;28;20490;-62
2023/06/22 10:43:23;;;;;;;14.53;8.83;;;31.70;88.70;;;;;;5077746;28;20487;-62
2023/06/22 10:45:49;;;;;;;15.27;8.30;;;32.00;90.50;;;;;;5072603;28;20494;-63
2023/06/22 10:48:16;;;;;;;13.13;8.20;;;31.80;87.90;;;;;;5071476;28;20984;-62
2023/06/22 10:50:43;;;;;;;10.60;8.00;;;31.40;87.40;;;;;;5073326;28;20482;-63
2023/06/22 10:53:09;;;;;;;23.53;8.50;;;31.70;89.80;;;;;;5052855;28;20488;-63
2023/06/22 10:55:37;;;;;;;10.30;8.00;;;31.80;90.50;;;;;;5066061;28;20493;-62
2023/06/22 10:58:04;;;;;;;19.27;8.13;;;31.90;90.00;;;;;;5077331;28;20858;-63
2023/06/22 11:00:31;;;;;;;17.40;7.50;;;32.00;90.30;;;;;;5050727;28;20456;-62
2023/06/22 11:02:58;;;;;;;11.60;8.47;;;31.80;87.40;;;;;;5072835;27;20485;-63
2023/06/22 11:05:25;;;;;;;16.87;8.13;;;31.80;86.80;;;;;;5079915;28;20512;-63
2023/06/22 11:07:51;;;;;;;14.67;8.33;;;31.50;87.00;;;;;;5064182;28;20481;-64
2023/06/22 11:10:18;;;;;;;15.13;7.87;;;32.00;89.00;;;;;;5076360;28;20477;-63
2023/06/22 11:12:47;;;;;;;16.20;9.03;;;31.40;89.00;;;;;;5075112;28;20466;-62
2023/06/22 11:15:14;;;;;;;18.63;8.70;;;31.40;89.50;;;;;;5079116;28;20465;-63
2023/06/22 11:17:41;;;;;;;11.50;7.67;;;31.30;89.40;;;;;;5069574;28;20529;-63
2023/06/22 11:20:11;;;;;;;9.27;7.63;;;31.30;90.00;;;;;;5051453;28;20886;-62
2023/06/22 11:22:39;;;;;;;20.70;8.43;;;31.10;89.00;;;;;;5069623;28;20459;-63
2023/06/22 11:25:06;;;;;;;10.73;8.67;;;31.10;90.20;;;;;;5066514;28;20451;-63
2023/06/22 11:27:34;;;;;;;13.33;9.03;;;;;;;;;;5059981;28;20483;-62
2023/06/22 11:30:02;;;;;;;14.77;8.60;;;31.10;89.30;;;;;;5076322;28;20996;-62
2023/06/22 11:32:29;;;;;;;11.73;8.00;;;31.10;89.50;;;;;;5053302;28;21046;-62
2023/06/22 11:34:55;;;;;;;15.80;9.50;;;31.10;89.60;;;;;;5059920;28;20921;-62
2023/06/22 11:37:22;;;;;;;13.13;9.43;;;31.00;90.20;;;;;;5064884;28;20460;-63
2023/06/22 11:39:49;;;;;;;12.20;8.60;;;31.00;90.30;;;;;;5063873;28;20497;-63
2023/06/22 11:42:16;;;;;;;12.33;9.70;;;;;;;;;;5059526;28;21023;-63
2023/06/22 11:44:43;;;;;;;15.97;9.90;;;30.80;91.20;;;;;;5031420;28;20478;-63
2023/06/22 11:47:11;;;;;;;16.17;9.60;;;30.60;91.50;;;;;;5070228;28;20840;-63
2023/06/22 11:49:38;;;;;;;15.50;9.60;;;30.60;91.50;;;;;;5090203;27;20488;-63
2023/06/22 11:52:05;;;;;;;13.97;9.20;;;30.60;91.00;;;;;;5058362;28;20925;-63
2023/06/22 11:54:32;;;;;;;17.23;9.93;;;30.50;91.20;;;;;;5072515;27;20564;-62
2023/06/22 11:56:59;;;;;;;17.07;9.77;;;30.70;92.70;;;;;;5056519;27;20493;-63
2023/06/22 11:59:25;;;;;;;14.00;9.87;;;30.60;91.40;;;;;;5067163;28;20558;-62
2023/06/22 12:01:52;;;;;;;13.07;10.17;;;30.60;91.50;;;;;;5079439;28;20482;-62
2023/06/22 12:04:20;;;;;;;17.77;9.83;;;31.00;92.30;;;;;;5065912;28;20584;-62
2023/06/22 12:06:47;;;;;;;8.50;6.50;;;31.00;91.40;;;;;;5066449;28;20465;-61
2023/06/22 12:09:14;;;;;;;15.40;9.00;;;31.30;92.80;;;;;;5045424;28;21082;-62
2023/06/22 12:11:41;;;;;;;15.57;9.73;;;31.20;91.10;;;;;;5057662;28;20486;-62
2023/06/22 12:14:08;;;;;;;18.90;9.60;;;30.90;90.90;;;;;;5068709;27;20460;-62
2023/06/22 12:16:35;;;;;;;17.73;8.97;;;30.90;91.30;;;;;;5072831;28;20496;-62
2023/06/22 12:19:01;;;;;;;14.47;10.17;;;31.10;91.70;;;;;;5085402;28;21048;-63
2023/06/22 12:21:29;;;;;;;14.00;10.50;;;31.10;91.90;;;;;;5071574;27;20464;-62
2023/06/22 12:23:56;;;;;;;19.20;10.33;;;31.10;91.80;;;;;;5076777;28;20494;-63
2023/06/22 12:26:23;;;;;;;14.13;9.60;;;31.30;91.80;;;;;;5074635;28;20485;-63
2023/06/22 12:28:50;;;;;;;18.13;8.83;;;31.30;89.60;;;;;;5082048;27;20460;-63
2023/06/22 12:31:16;;;;;;;19.20;8.87;;;31.40;88.20;;;;;;5071216;28;20486;-63
2023/06/22 12:33:43;;;;;;;16.73;9.13;;;;;;;;;;5061491;28;20464;-63